createdAt,value
2017-12-20T00:00:50.416Z,43.21
2017-12-20T00:03:17.693Z,43.30
2017-12-20T00:05:45.347Z,43.32
2017-12-20T00:08:13.003Z,43.33
2017-12-20T00:10:40.463Z,43.31
2017-12-20T00:13:07.928Z,43.28
2017-12-20T00:15:35.568Z,43.30
2017-12-20T00:18:03.023Z,43.34
2017-12-20T00:20:30.484Z,43.31
2017-12-20T00:22:58.267Z,43.37
2017-12-20T00:25:25.722Z,43.37
2017-12-20T00:27:53.174Z,43.33
2017-12-20T00:30:20.622Z,43.40
2017-12-20T00:32:48.112Z,43.30
2017-12-20T00:35:15.572Z,43.40
2017-12-20T00:37:43.024Z,43.45
2017-12-20T00:40:10.480Z,43.36
2017-12-20T00:42:37.932Z,43.38
2017-12-20T00:45:05.386Z,43.38
2017-12-20T00:47:33.048Z,43.41
2017-12-20T00:50:00.502Z,43.42
2017-12-20T00:52:28.150Z,43.45
2017-12-20T00:54:55.809Z,43.46
2017-12-20T00:57:23.264Z,43.40
2017-12-20T00:59:50.728Z,43.47
2017-12-20T01:02:18.190Z,43.41
2017-12-20T01:04:45.848Z,43.45
2017-12-20T01:07:13.299Z,43.43
2017-12-20T01:09:40.751Z,43.47
2017-12-20T01:12:08.207Z,43.47
2017-12-20T01:14:35.863Z,43.47
2017-12-20T01:17:03.306Z,43.47
2017-12-20T01:19:30.956Z,43.47
2017-12-20T01:21:58.404Z,43.48
2017-12-20T01:24:25.839Z,43.50
2017-12-20T01:26:53.296Z,43.51
2017-12-20T01:29:20.735Z,43.52
2017-12-20T01:31:48.183Z,43.50
2017-12-20T01:34:15.644Z,43.48
2017-12-20T01:36:43.100Z,43.53
2017-12-20T01:39:10.555Z,43.55
2017-12-20T01:41:38.008Z,43.57
2017-12-20T01:44:05.668Z,43.51
2017-12-20T01:46:33.124Z,43.54
2017-12-20T01:49:00.780Z,43.57
2017-12-20T01:51:28.239Z,43.53
2017-12-20T01:53:55.696Z,43.57
2017-12-20T01:56:23.159Z,43.53
2017-12-20T01:58:50.815Z,43.58
2017-12-20T02:01:18.271Z,43.54
2017-12-20T02:03:45.716Z,43.61
2017-12-20T02:06:13.225Z,43.61
2017-12-20T02:08:40.816Z,43.61
2017-12-20T02:11:08.263Z,43.57
2017-12-20T02:13:35.717Z,43.58
2017-12-20T02:16:03.344Z,43.55
2017-12-20T02:18:30.804Z,43.53
2017-12-20T02:20:58.255Z,43.65
2017-12-20T02:23:25.715Z,43.65
2017-12-20T02:25:53.167Z,43.60
2017-12-20T02:28:20.623Z,43.67
2017-12-20T02:30:48.089Z,43.59
2017-12-20T02:33:15.745Z,43.75
2017-12-20T02:35:43.391Z,43.69
2017-12-20T02:38:10.847Z,43.69
2017-12-20T02:40:38.304Z,43.66
2017-12-20T02:43:05.760Z,43.67
2017-12-20T02:45:33.421Z,43.67
2017-12-20T02:48:01.080Z,43.67
2017-12-20T02:50:28.539Z,43.62
2017-12-20T02:52:55.996Z,43.68
2017-12-20T02:55:23.456Z,43.66
2017-12-20T02:57:51.089Z,43.64
2017-12-20T03:00:18.539Z,43.65
2017-12-20T03:02:46.204Z,43.61
2017-12-20T03:05:13.659Z,43.76
2017-12-20T03:07:41.117Z,43.62
2017-12-20T03:10:08.762Z,43.60
2017-12-20T03:12:36.407Z,43.68
2017-12-20T03:15:03.860Z,43.59
2017-12-20T03:17:31.299Z,43.70
2017-12-20T03:19:58.755Z,43.71
2017-12-20T03:22:26.227Z,43.69
2017-12-20T03:24:53.676Z,43.75
2017-12-20T03:27:21.144Z,43.74
2017-12-20T03:29:48.596Z,43.69
2017-12-20T03:32:16.042Z,43.68
2017-12-20T03:34:43.490Z,44.00
2017-12-20T03:37:10.944Z,43.73
2017-12-20T03:39:38.405Z,43.68
2017-12-20T03:42:05.863Z,43.80
2017-12-20T03:44:33.315Z,43.76
2017-12-20T03:47:00.755Z,43.77
2017-12-20T03:49:28.207Z,43.84
2017-12-20T03:51:55.658Z,43.80
2017-12-20T03:54:23.119Z,43.79
2017-12-20T03:56:50.563Z,43.91
2017-12-20T03:59:18.011Z,43.82
2017-12-20T04:01:45.459Z,43.78
2017-12-20T04:04:12.916Z,43.81
2017-12-20T04:06:40.370Z,43.92
2017-12-20T04:09:07.823Z,43.73
2017-12-20T04:11:35.478Z,43.93
2017-12-20T04:14:03.126Z,43.80
2017-12-20T04:16:30.587Z,43.70
2017-12-20T04:18:58.043Z,43.80
2017-12-20T04:21:25.689Z,43.79
2017-12-20T04:23:53.351Z,43.83
2017-12-20T04:26:20.989Z,43.87
2017-12-20T04:28:48.444Z,43.83
2017-12-20T04:31:15.915Z,43.94
2017-12-20T04:33:43.384Z,43.87
2017-12-20T04:36:10.836Z,43.85
2017-12-20T04:38:38.279Z,43.84
2017-12-20T04:41:05.731Z,43.86
2017-12-20T04:43:33.234Z,43.85
2017-12-20T04:46:00.668Z,43.85
2017-12-20T04:48:28.315Z,43.95
2017-12-20T04:50:55.774Z,43.81
2017-12-20T04:53:23.411Z,44.00
2017-12-20T04:55:50.855Z,43.93
2017-12-20T04:58:18.312Z,43.85
2017-12-20T05:00:45.763Z,43.97
2017-12-20T05:03:13.207Z,43.99
2017-12-20T05:05:40.659Z,43.99
2017-12-20T05:08:08.315Z,43.86
2017-12-20T05:10:35.771Z,43.88
2017-12-20T05:13:03.427Z,43.91
2017-12-20T05:15:30.883Z,43.84
2017-12-20T05:17:58.336Z,43.94
2017-12-20T05:20:25.788Z,44.02
2017-12-20T05:22:53.244Z,44.05
2017-12-20T05:25:20.698Z,44.06
2017-12-20T05:27:48.156Z,43.98
2017-12-20T05:30:15.598Z,44.04
2017-12-20T05:32:43.067Z,43.96
2017-12-20T05:35:10.532Z,43.99
2017-12-20T05:37:37.987Z,44.05
2017-12-20T05:40:05.444Z,44.01
2017-12-20T05:42:32.904Z,44.04
2017-12-20T05:45:00.374Z,44.08
2017-12-20T05:47:27.826Z,44.03
2017-12-20T05:49:55.875Z,44.08
2017-12-20T05:52:23.519Z,44.09
2017-12-20T05:54:50.971Z,44.16
2017-12-20T05:57:18.419Z,44.12
2017-12-20T05:59:45.915Z,44.04
2017-12-20T06:02:13.370Z,44.07
2017-12-20T06:04:40.836Z,44.17
2017-12-20T06:07:08.287Z,44.13
2017-12-20T06:09:35.942Z,44.08
2017-12-20T06:12:03.211Z,44.03
2017-12-20T06:14:30.710Z,44.12
2017-12-20T06:16:58.344Z,44.12
2017-12-20T06:19:25.983Z,44.10
2017-12-20T06:21:53.439Z,44.08
2017-12-20T06:24:22.269Z,44.10
2017-12-20T06:26:49.727Z,44.14
2017-12-20T06:29:17.200Z,44.09
2017-12-20T06:31:44.688Z,44.08
2017-12-20T06:34:12.139Z,44.10
2017-12-20T06:36:39.619Z,44.06
2017-12-20T06:39:07.066Z,44.11
2017-12-20T06:41:34.540Z,44.16
2017-12-20T06:44:01.995Z,44.14
2017-12-20T06:46:29.447Z,44.08
2017-12-20T06:48:57.095Z,44.13
2017-12-20T06:51:24.580Z,44.12
2017-12-20T06:53:52.036Z,44.08
2017-12-20T06:56:19.300Z,44.08
2017-12-20T06:58:46.756Z,44.09
2017-12-20T07:01:14.203Z,44.12
2017-12-20T07:03:41.668Z,44.11
2017-12-20T07:06:09.152Z,44.08
2017-12-20T07:08:36.602Z,44.15
2017-12-20T07:11:04.256Z,44.06
2017-12-20T07:13:31.720Z,44.06
2017-12-20T07:15:59.176Z,44.11
2017-12-20T07:18:26.623Z,44.10
2017-12-20T07:20:54.068Z,44.04
2017-12-20T07:23:21.523Z,44.05
2017-12-20T07:25:48.987Z,44.07
2017-12-20T07:28:16.440Z,44.07
2017-12-20T07:30:43.891Z,44.02
2017-12-20T07:33:11.340Z,43.99
2017-12-20T07:35:38.808Z,43.97
2017-12-20T07:38:06.447Z,44.03
2017-12-20T07:40:33.904Z,43.99
2017-12-20T07:43:01.352Z,44.11
2017-12-20T07:45:28.802Z,44.24
2017-12-20T07:47:56.268Z,44.67
2017-12-20T07:50:23.725Z,45.16
2017-12-20T07:52:51.376Z,45.26
2017-12-20T07:55:18.830Z,45.18
2017-12-20T07:57:46.296Z,44.90
2017-12-20T08:00:13.940Z,44.69
2017-12-20T08:02:41.398Z,44.67
2017-12-20T08:05:09.063Z,44.58
2017-12-20T08:07:36.508Z,44.54
2017-12-20T08:10:03.954Z,44.51
2017-12-20T08:12:31.410Z,44.44
2017-12-20T08:14:58.879Z,44.40
2017-12-20T08:17:26.519Z,44.41
2017-12-20T08:19:53.981Z,44.36
2017-12-20T08:22:21.429Z,44.30
2017-12-20T08:24:49.076Z,44.34
2017-12-20T08:27:16.531Z,44.28
2017-12-20T08:29:44.008Z,44.25
2017-12-20T08:32:11.480Z,44.23
2017-12-20T08:34:38.928Z,44.19
2017-12-20T08:37:06.392Z,44.24
2017-12-20T08:39:33.847Z,44.17
2017-12-20T08:42:01.306Z,44.33
2017-12-20T08:44:28.767Z,44.35
2017-12-20T08:46:56.420Z,44.85
2017-12-20T08:49:24.067Z,45.00
2017-12-20T08:51:51.726Z,45.00
2017-12-20T08:54:19.393Z,45.22
2017-12-20T08:56:47.044Z,45.30
2017-12-20T08:59:14.503Z,45.36
2017-12-20T09:01:41.956Z,45.44
2017-12-20T09:04:09.416Z,45.50
2017-12-20T09:06:36.874Z,45.57
2017-12-20T09:09:04.524Z,45.62
2017-12-20T09:11:31.992Z,45.72
2017-12-20T09:13:59.448Z,45.70
2017-12-20T09:16:26.896Z,45.41
2017-12-20T09:18:54.344Z,45.20
2017-12-20T09:21:21.799Z,45.12
2017-12-20T09:23:49.260Z,45.01
2017-12-20T09:26:16.695Z,45.01
2017-12-20T09:28:44.345Z,44.90
2017-12-20T09:31:11.795Z,44.82
2017-12-20T09:33:39.270Z,44.86
2017-12-20T09:36:06.902Z,44.77
2017-12-20T09:38:34.347Z,44.73
2017-12-20T09:41:01.800Z,44.79
2017-12-20T09:43:29.252Z,45.05
2017-12-20T09:45:56.698Z,45.10
2017-12-20T09:48:24.348Z,45.19
2017-12-20T09:50:51.800Z,45.33
2017-12-20T09:53:19.259Z,45.05
2017-12-20T09:55:46.707Z,44.93
2017-12-20T09:58:14.167Z,44.97
2017-12-20T10:00:41.624Z,45.09
2017-12-20T10:03:09.071Z,44.87
2017-12-20T10:05:36.533Z,44.69
2017-12-20T10:08:03.974Z,44.61
2017-12-20T10:10:31.419Z,44.69
2017-12-20T10:12:58.880Z,44.82
2017-12-20T10:15:26.335Z,44.96
2017-12-20T10:17:53.786Z,45.08
2017-12-20T10:20:21.236Z,45.16
2017-12-20T10:22:48.697Z,45.25
2017-12-20T10:25:16.347Z,45.21
2017-12-20T10:27:43.795Z,45.22
2017-12-20T10:30:11.248Z,45.21
2017-12-20T10:32:38.705Z,45.18
2017-12-20T10:35:06.160Z,45.27
2017-12-20T10:37:33.599Z,45.26
2017-12-20T10:40:01.064Z,45.37
2017-12-20T10:42:28.323Z,45.34
2017-12-20T10:44:55.780Z,45.36
2017-12-20T10:47:23.229Z,45.46
2017-12-20T10:49:50.883Z,45.29
2017-12-20T10:52:18.700Z,45.34
2017-12-20T10:54:46.143Z,45.35
2017-12-20T10:57:13.594Z,45.35
2017-12-20T10:59:41.045Z,45.40
2017-12-20T11:02:08.723Z,45.38
2017-12-20T11:04:36.603Z,45.38
2017-12-20T11:07:04.007Z,45.41
2017-12-20T11:09:31.463Z,45.21
2017-12-20T11:11:58.911Z,45.17
2017-12-20T11:14:26.367Z,45.04
2017-12-20T11:16:53.824Z,45.09
2017-12-20T11:19:21.475Z,44.98
2017-12-20T11:21:48.928Z,44.88
2017-12-20T11:24:16.371Z,44.89
2017-12-20T11:26:43.823Z,44.84
2017-12-20T11:29:11.278Z,44.77
2017-12-20T11:31:38.730Z,44.83
2017-12-20T11:34:06.195Z,44.76
2017-12-20T11:36:33.674Z,44.75
2017-12-20T11:39:01.119Z,44.71
2017-12-20T11:41:28.576Z,44.67
2017-12-20T11:43:56.048Z,44.62
2017-12-20T11:46:23.500Z,44.63
2017-12-20T11:48:50.963Z,44.62
2017-12-20T11:51:18.415Z,44.58
2017-12-20T11:53:45.876Z,44.55
2017-12-20T11:56:13.331Z,44.55
2017-12-20T11:58:40.975Z,44.48
2017-12-20T12:01:08.612Z,44.53
2017-12-20T12:03:36.077Z,44.45
2017-12-20T12:06:03.727Z,44.46
2017-12-20T12:08:31.182Z,44.55
2017-12-20T12:10:58.620Z,44.38
2017-12-20T12:13:26.067Z,44.39
2017-12-20T12:15:53.531Z,44.43
2017-12-20T12:18:20.988Z,44.40
2017-12-20T12:20:48.435Z,44.36
2017-12-20T12:23:15.883Z,44.32
2017-12-20T12:25:43.337Z,44.36
2017-12-20T12:28:10.784Z,44.38
2017-12-20T12:30:38.231Z,44.30
2017-12-20T12:33:05.688Z,44.40
2017-12-20T12:35:33.140Z,44.36
2017-12-20T12:38:00.767Z,44.26
2017-12-20T12:40:28.211Z,44.27
2017-12-20T12:42:55.667Z,44.33
2017-12-20T12:45:23.131Z,44.29
2017-12-20T12:47:50.582Z,44.23
2017-12-20T12:50:18.027Z,44.30
2017-12-20T12:52:45.695Z,44.28
2017-12-20T12:55:13.139Z,44.30
2017-12-20T12:57:40.590Z,44.26
2017-12-20T13:00:08.047Z,44.22
2017-12-20T13:02:35.499Z,44.24
2017-12-20T13:05:02.948Z,44.23
2017-12-20T13:07:30.602Z,44.18
2017-12-20T13:09:58.069Z,44.23
2017-12-20T13:12:25.323Z,44.18
2017-12-20T13:14:52.780Z,44.23
2017-12-20T13:17:20.235Z,44.21
2017-12-20T13:19:47.679Z,44.24
2017-12-20T13:22:15.136Z,44.15
2017-12-20T13:24:42.590Z,44.17
2017-12-20T13:27:10.039Z,44.18
2017-12-20T13:29:37.502Z,44.22
2017-12-20T13:32:04.951Z,44.17
2017-12-20T13:34:32.406Z,44.20
2017-12-20T13:36:59.859Z,44.17
2017-12-20T13:39:27.312Z,44.08
2017-12-20T13:41:54.769Z,44.15
2017-12-20T13:44:22.215Z,44.06
2017-12-20T13:46:49.671Z,44.16
2017-12-20T13:49:17.131Z,44.13
2017-12-20T13:51:44.584Z,44.20
2017-12-20T13:54:12.032Z,44.41
2017-12-20T13:56:39.511Z,44.60
2017-12-20T13:59:07.028Z,44.79
2017-12-20T14:01:34.524Z,44.89
2017-12-20T14:04:02.248Z,44.60
2017-12-20T14:06:29.991Z,44.49
2017-12-20T14:08:57.635Z,44.46
2017-12-20T14:11:25.099Z,44.49
2017-12-20T14:13:52.678Z,44.64
2017-12-20T14:16:20.112Z,44.79
2017-12-20T14:18:47.573Z,44.89
2017-12-20T14:21:15.302Z,45.03
2017-12-20T14:23:42.744Z,44.74
2017-12-20T14:26:10.217Z,44.66
2017-12-20T14:28:37.647Z,44.54
2017-12-20T14:31:05.288Z,44.55
2017-12-20T14:33:32.752Z,44.51
2017-12-20T14:36:00.403Z,44.48
2017-12-20T14:38:27.871Z,44.42
2017-12-20T14:40:55.310Z,44.47
2017-12-20T14:43:22.966Z,44.43
2017-12-20T14:45:50.428Z,44.41
2017-12-20T14:48:17.872Z,44.41
2017-12-20T14:50:45.320Z,44.36
2017-12-20T14:53:12.934Z,44.36
2017-12-20T14:55:40.425Z,44.36
2017-12-20T14:58:07.876Z,44.43
2017-12-20T15:00:35.354Z,44.67
2017-12-20T15:03:02.812Z,44.92
2017-12-20T15:05:30.303Z,44.88
2017-12-20T15:07:57.768Z,44.69
2017-12-20T15:10:25.227Z,44.59
2017-12-20T15:12:52.907Z,44.52
2017-12-20T15:15:20.364Z,44.51
2017-12-20T15:17:47.812Z,44.48
2017-12-20T15:20:15.283Z,44.47
2017-12-20T15:22:42.735Z,44.44
2017-12-20T15:25:15.507Z,44.39
2017-12-20T15:27:42.955Z,44.48
2017-12-20T15:30:10.411Z,44.39
2017-12-20T15:32:37.891Z,44.37
2017-12-20T15:35:05.351Z,44.37
2017-12-20T15:37:33.012Z,44.39
2017-12-20T15:40:00.472Z,44.36
2017-12-20T15:42:27.923Z,44.36
2017-12-20T15:44:55.366Z,44.19
2017-12-20T15:47:22.824Z,44.03
2017-12-20T15:49:50.271Z,44.12
2017-12-20T15:52:17.720Z,44.08
2017-12-20T15:54:45.175Z,44.17
2017-12-20T15:57:12.665Z,44.10
2017-12-20T15:59:40.100Z,44.18
2017-12-20T16:02:07.548Z,44.19
2017-12-20T16:04:35.011Z,44.14
2017-12-20T16:07:02.672Z,44.08
2017-12-20T16:09:30.127Z,44.16
2017-12-20T16:11:57.779Z,44.18
2017-12-20T16:14:25.238Z,44.16
2017-12-20T16:16:52.690Z,44.17
2017-12-20T16:19:20.332Z,44.15
2017-12-20T16:21:47.839Z,44.12
2017-12-20T16:24:15.439Z,44.16
2017-12-20T16:26:42.891Z,44.18
2017-12-20T16:29:10.346Z,44.16
2017-12-20T16:31:37.802Z,44.23
2017-12-20T16:34:05.255Z,44.17
2017-12-20T16:36:32.719Z,44.14
2017-12-20T16:39:00.368Z,44.17
2017-12-20T16:41:27.823Z,44.17
2017-12-20T16:43:55.262Z,44.15
2017-12-20T16:46:22.712Z,44.17
2017-12-20T16:48:50.168Z,44.13
2017-12-20T16:51:17.616Z,44.16
2017-12-20T16:53:45.077Z,44.16
2017-12-20T16:56:12.744Z,44.13
2017-12-20T16:58:40.204Z,44.16
2017-12-20T17:01:07.851Z,44.14
2017-12-20T17:03:35.328Z,44.14
2017-12-20T17:06:02.788Z,44.17
2017-12-20T17:08:30.244Z,44.13
2017-12-20T17:10:57.691Z,44.08
2017-12-20T17:13:25.152Z,44.08
2017-12-20T17:15:52.817Z,44.08
2017-12-20T17:18:20.276Z,44.12
2017-12-20T17:20:47.741Z,44.08
2017-12-20T17:23:15.387Z,44.08
2017-12-20T17:25:43.038Z,44.21
2017-12-20T17:28:10.500Z,44.23
2017-12-20T17:30:38.139Z,44.14
2017-12-20T17:33:05.600Z,44.25
2017-12-20T17:35:33.056Z,44.47
2017-12-20T17:38:00.504Z,44.47
2017-12-20T17:40:27.978Z,44.55
2017-12-20T17:42:55.447Z,44.58
2017-12-20T17:45:23.108Z,44.73
2017-12-20T17:47:50.562Z,44.67
2017-12-20T17:50:18.016Z,44.74
2017-12-20T17:52:45.471Z,44.72
2017-12-20T17:55:12.931Z,44.83
2017-12-20T17:57:40.392Z,44.86
2017-12-20T18:00:07.831Z,44.98
2017-12-20T18:02:35.304Z,44.98
2017-12-20T18:05:02.967Z,45.04
2017-12-20T18:07:30.419Z,45.05
2017-12-20T18:09:57.879Z,45.09
2017-12-20T18:12:25.344Z,45.11
2017-12-20T18:14:52.795Z,44.92
2017-12-20T18:17:20.252Z,44.97
2017-12-20T18:19:47.892Z,44.96
2017-12-20T18:22:15.151Z,44.95
2017-12-20T18:24:42.627Z,44.99
2017-12-20T18:27:10.079Z,45.09
2017-12-20T18:29:37.711Z,45.02
2017-12-20T18:32:05.171Z,44.94
2017-12-20T18:34:32.633Z,44.87
2017-12-20T18:37:00.083Z,44.78
2017-12-20T18:39:27.535Z,44.74
2017-12-20T18:41:54.987Z,44.68
2017-12-20T18:44:22.623Z,44.68
2017-12-20T18:46:50.076Z,44.63
2017-12-20T18:49:17.529Z,44.60
2017-12-20T18:51:44.980Z,44.59
2017-12-20T18:56:52.288Z,44.53
2017-12-20T18:59:19.732Z,44.45
2017-12-20T19:01:47.183Z,44.47
2017-12-20T19:04:14.815Z,44.45
2017-12-20T19:06:42.268Z,44.46
2017-12-20T19:09:09.746Z,44.45
2017-12-20T19:11:37.211Z,44.48
2017-12-20T19:14:04.876Z,44.41
2017-12-20T19:16:32.335Z,44.50
2017-12-20T19:18:59.988Z,44.47
2017-12-20T19:21:27.435Z,44.47
2017-12-20T19:23:54.886Z,44.44
2017-12-20T19:26:22.331Z,44.44
2017-12-20T19:28:49.973Z,44.43
2017-12-20T19:31:17.664Z,44.47
2017-12-20T19:33:45.318Z,44.44
2017-12-20T19:36:12.775Z,44.43
2017-12-20T19:38:40.233Z,44.43
2017-12-20T19:41:07.882Z,44.42
2017-12-20T19:43:35.364Z,44.49
2017-12-20T19:46:02.820Z,44.43
2017-12-20T19:48:30.284Z,44.38
2017-12-20T19:50:57.736Z,44.46
2017-12-20T19:53:25.194Z,44.41
2017-12-20T19:55:52.648Z,44.48
2017-12-20T19:58:20.102Z,44.56
2017-12-20T20:00:47.960Z,44.66
2017-12-20T20:03:15.422Z,44.62
2017-12-20T20:05:43.081Z,44.69
2017-12-20T20:08:10.536Z,44.71
2017-12-20T20:10:38.039Z,44.63
2017-12-20T20:13:05.439Z,44.55
2017-12-20T20:15:32.899Z,44.38
2017-12-20T20:18:00.368Z,44.38
2017-12-20T20:20:27.640Z,44.32
2017-12-20T20:22:55.090Z,44.27
2017-12-20T20:25:22.549Z,44.24
2017-12-20T20:27:50.208Z,44.23
2017-12-20T20:30:17.660Z,44.27
2017-12-20T20:32:45.103Z,44.19
2017-12-20T20:35:12.771Z,44.11
2017-12-20T20:37:40.223Z,44.08
2017-12-20T20:40:07.687Z,44.18
2017-12-20T20:42:35.347Z,44.28
2017-12-20T20:45:03.012Z,44.29
2017-12-20T20:47:30.573Z,44.37
2017-12-20T20:49:58.032Z,44.39
2017-12-20T20:52:25.516Z,44.36
2017-12-20T20:54:53.160Z,44.44
2017-12-20T20:57:20.812Z,44.47
2017-12-20T20:59:48.268Z,44.45
2017-12-20T21:02:15.760Z,44.47
2017-12-20T21:04:43.175Z,44.27
2017-12-20T21:07:10.827Z,44.52
2017-12-20T21:09:38.487Z,44.52
2017-12-20T21:12:05.948Z,44.62
2017-12-20T21:14:33.408Z,44.63
2017-12-20T21:17:00.865Z,44.58
2017-12-20T21:19:28.523Z,44.61
2017-12-20T21:21:55.984Z,44.62
2017-12-20T21:24:23.449Z,44.63
2017-12-20T21:26:50.902Z,44.61
2017-12-20T21:29:18.378Z,44.67
2017-12-20T21:31:45.831Z,44.73
2017-12-20T21:34:13.287Z,44.75
2017-12-20T21:36:40.731Z,44.74
2017-12-20T21:39:08.183Z,44.81
2017-12-20T21:41:35.631Z,44.79
2017-12-20T21:44:03.264Z,44.75
2017-12-20T21:46:30.724Z,44.77
2017-12-20T21:48:58.178Z,44.75
2017-12-20T21:51:25.630Z,44.77
2017-12-20T21:53:53.087Z,44.77
2017-12-20T21:56:20.539Z,44.78
2017-12-20T21:58:47.991Z,44.78
2017-12-20T22:01:15.444Z,44.74
2017-12-20T22:03:42.899Z,44.70
2017-12-20T22:06:10.356Z,44.74
2017-12-20T22:08:37.816Z,44.74
2017-12-20T22:11:05.296Z,44.70
2017-12-20T22:13:32.775Z,44.63
2017-12-20T22:16:00.423Z,44.66
2017-12-20T22:18:27.881Z,44.65
2017-12-20T22:20:55.338Z,44.68
2017-12-20T22:23:22.791Z,44.63
2017-12-20T22:25:50.244Z,44.66
2017-12-20T22:28:17.698Z,44.64
2017-12-20T22:30:45.171Z,44.66
2017-12-20T22:33:12.624Z,44.69
2017-12-20T22:35:40.075Z,44.63
2017-12-20T22:38:07.515Z,44.67
2017-12-20T22:40:35.148Z,44.65
2017-12-20T22:43:02.604Z,44.71
2017-12-20T22:45:30.080Z,44.66
2017-12-20T22:47:57.534Z,44.68
2017-12-20T22:50:25.003Z,44.71
2017-12-20T22:52:52.466Z,44.64
2017-12-20T22:55:19.936Z,44.70
2017-12-20T22:57:47.580Z,44.65
2017-12-20T23:00:15.038Z,44.68
2017-12-20T23:02:42.492Z,44.67
2017-12-20T23:05:10.156Z,44.66
2017-12-20T23:07:37.612Z,44.71
2017-12-20T23:10:05.062Z,44.70
2017-12-20T23:12:32.716Z,44.69
2017-12-20T23:15:00.172Z,44.71
2017-12-20T23:17:27.615Z,44.70
2017-12-20T23:19:55.075Z,44.71
2017-12-20T23:22:22.526Z,44.74
2017-12-20T23:24:49.999Z,44.66
2017-12-20T23:27:17.458Z,44.72
2017-12-20T23:29:44.902Z,44.73
2017-12-20T23:32:12.359Z,44.74
2017-12-20T23:34:39.810Z,44.72
2017-12-20T23:37:07.260Z,44.78
2017-12-20T23:39:34.699Z,44.72
2017-12-20T23:42:02.150Z,44.73
2017-12-20T23:44:30.044Z,44.77
2017-12-20T23:46:57.483Z,44.74
2017-12-20T23:49:24.947Z,44.76
2017-12-20T23:51:52.599Z,44.76
2017-12-20T23:54:20.056Z,44.83
2017-12-20T23:56:47.506Z,44.75
2017-12-20T23:59:14.960Z,44.77
